createdAt,value
2022-09-03T00:01:55.245Z,16.10
2022-09-03T00:04:37.588Z,16.15
2022-09-03T00:07:09.045Z,16.25
2022-09-03T00:09:46.321Z,16.31
2022-09-03T00:12:19.998Z,16.41
2022-09-03T00:15:06.478Z,16.49
2022-09-03T00:17:37.211Z,16.50
2022-09-03T00:20:17.589Z,16.51
2022-09-03T00:22:50.367Z,16.50
2022-09-03T00:25:21.417Z,16.46
2022-09-03T00:27:55.242Z,16.46
2022-09-03T00:30:24.488Z,16.49
2022-09-03T00:32:57.497Z,16.46
2022-09-03T00:35:28.710Z,16.50
2022-09-03T00:37:56.033Z,16.55
2022-09-03T00:40:50.675Z,16.54
2022-09-03T00:43:26.452Z,16.53
2022-09-03T00:46:11.778Z,16.53
2022-09-03T00:48:55.904Z,16.53
2022-09-03T00:52:05.605Z,16.57
2022-09-03T00:54:56.738Z,16.59
2022-09-03T00:58:00.984Z,16.61
2022-09-03T01:00:29.246Z,16.56
2022-09-03T01:03:34.211Z,16.52
2022-09-03T01:06:15.503Z,16.56
2022-09-03T01:09:03.662Z,16.62
2022-09-03T01:12:13.679Z,16.62
2022-09-03T01:14:50.434Z,16.68
2022-09-03T01:17:37.451Z,16.69
2022-09-03T01:20:15.851Z,16.67
2022-09-03T01:23:02.659Z,16.67
2022-09-03T01:25:48.693Z,16.67
2022-09-03T01:28:33.537Z,16.70
2022-09-03T01:31:27.148Z,16.76
2022-09-03T01:34:06.072Z,16.76
2022-09-03T01:36:44.806Z,16.76
2022-09-03T01:39:24.481Z,16.77
2022-09-03T01:42:15.866Z,16.85
2022-09-03T01:45:09.614Z,16.89
2022-09-03T01:47:51.636Z,16.90
2022-09-03T01:50:44.096Z,16.92
2022-09-03T01:53:35.845Z,16.89
2022-09-03T01:56:15.556Z,16.88
2022-09-03T01:59:01.144Z,16.84
2022-09-03T02:01:36.936Z,16.81
2022-09-03T02:04:14.812Z,16.84
2022-09-03T02:06:41.716Z,16.86
2022-09-03T02:09:08.379Z,16.92
2022-09-03T02:11:35.042Z,16.95
2022-09-03T02:14:01.795Z,17.03
2022-09-03T02:16:31.969Z,17.01
2022-09-03T02:19:02.255Z,17.03
2022-09-03T02:21:35.038Z,17.08
2022-09-03T02:24:03.584Z,17.13
2022-09-03T02:26:30.351Z,17.11
2022-09-03T02:28:57.891Z,17.05
2022-09-03T02:31:24.918Z,17.04
2022-09-03T02:33:51.918Z,17.03
2022-09-03T02:36:21.854Z,17.00
2022-09-03T02:38:52.342Z,17.00
2022-09-03T02:41:19.295Z,17.01
2022-09-03T02:44:02.998Z,17.01
2022-09-03T02:46:36.308Z,17.07
2022-09-03T02:49:03.183Z,17.03
2022-09-03T02:51:38.744Z,16.99
2022-09-03T02:54:06.395Z,16.85
2022-09-03T02:56:33.112Z,16.81
2022-09-03T02:59:00.363Z,16.78
2022-09-03T03:01:27.454Z,16.60
2022-09-03T03:03:54.780Z,16.58
2022-09-03T03:06:22.221Z,16.60
2022-09-03T03:08:49.966Z,16.60
2022-09-03T03:11:18.462Z,16.58
2022-09-03T03:13:46.248Z,16.53
2022-09-03T03:16:13.964Z,16.50
2022-09-03T03:18:41.232Z,16.51
2022-09-03T03:21:10.009Z,16.45
2022-09-03T03:23:38.130Z,16.40
2022-09-03T03:26:07.316Z,16.40
2022-09-03T03:28:34.620Z,16.34
2022-09-03T03:31:07.869Z,16.28
2022-09-03T03:33:34.980Z,16.26
2022-09-03T03:36:16.075Z,16.26
2022-09-03T03:38:44.150Z,16.28
2022-09-03T03:41:13.772Z,16.28
2022-09-03T03:43:40.746Z,16.21
2022-09-03T03:46:07.663Z,16.17
2022-09-03T03:48:34.450Z,16.15
2022-09-03T03:51:04.350Z,16.16
2022-09-03T03:53:31.692Z,16.16
2022-09-03T03:56:00.459Z,16.16
2022-09-03T03:58:28.863Z,16.21
2022-09-03T04:00:55.759Z,16.23
2022-09-03T04:03:22.483Z,16.28
2022-09-03T04:05:59.869Z,16.30
2022-09-03T04:08:29.839Z,16.34
2022-09-03T04:11:01.234Z,16.32
2022-09-03T04:13:38.738Z,16.32
2022-09-03T04:16:10.660Z,16.34
2022-09-03T04:18:38.320Z,16.45
2022-09-03T04:21:18.842Z,16.50
2022-09-03T04:23:46.649Z,16.48
2022-09-03T04:26:16.071Z,16.43
2022-09-03T04:28:43.080Z,16.44
2022-09-03T04:31:11.290Z,16.40
2022-09-03T04:33:38.974Z,16.38
2022-09-03T04:36:08.631Z,16.38
2022-09-03T04:38:36.962Z,16.34
2022-09-03T04:41:05.057Z,16.34
2022-09-03T04:43:35.188Z,16.38
2022-09-03T04:46:05.279Z,16.42
2022-09-03T04:48:33.111Z,16.41
2022-09-03T04:51:15.628Z,16.41
2022-09-03T04:53:45.612Z,16.42
2022-09-03T04:56:17.290Z,16.38
2022-09-03T04:58:44.829Z,16.38
2022-09-03T05:01:13.391Z,16.27
2022-09-03T05:03:40.221Z,16.30
2022-09-03T05:06:08.506Z,16.32
2022-09-03T05:08:36.935Z,16.39
2022-09-03T05:11:05.188Z,16.45
2022-09-03T05:13:33.828Z,16.43
2022-09-03T05:16:05.975Z,16.43
2022-09-03T05:18:33.172Z,16.46
2022-09-03T05:21:06.421Z,16.57
2022-09-03T05:23:37.741Z,16.63
2022-09-03T05:26:10.878Z,16.67
2022-09-03T05:28:39.226Z,16.74
2022-09-03T05:31:13.192Z,16.74
2022-09-03T05:33:44.287Z,16.72
2022-09-03T05:36:13.176Z,16.70
2022-09-03T05:38:40.045Z,16.68
2022-09-03T05:41:09.204Z,16.60
2022-09-03T05:43:36.546Z,16.56
2022-09-03T05:46:06.056Z,16.56
2022-09-03T05:48:35.742Z,16.64
2022-09-03T05:51:16.656Z,16.76
2022-09-03T05:53:48.074Z,16.92
2022-09-03T05:56:20.174Z,16.93
2022-09-03T05:58:49.267Z,16.97
2022-09-03T06:01:24.157Z,16.94
2022-09-03T06:03:55.629Z,17.08
2022-09-03T06:06:25.772Z,17.23
2022-09-03T06:08:53.677Z,17.38
2022-09-03T06:11:21.689Z,17.46
2022-09-03T06:13:48.494Z,17.63
2022-09-03T06:16:15.865Z,17.66
2022-09-03T06:18:42.679Z,17.76
2022-09-03T06:21:09.407Z,17.73
2022-09-03T06:23:36.478Z,17.59
2022-09-03T06:26:08.742Z,17.64
2022-09-03T06:28:37.993Z,17.50
2022-09-03T06:31:06.924Z,17.52
2022-09-03T06:33:35.467Z,17.47
2022-09-03T06:36:06.869Z,17.62
2022-09-03T06:38:37.344Z,17.64
2022-09-03T06:41:06.607Z,17.75
2022-09-03T06:43:38.890Z,17.88
2022-09-03T06:46:08.178Z,18.10
2022-09-03T06:48:35.748Z,18.22
2022-09-03T06:51:10.107Z,18.25
2022-09-03T06:53:41.240Z,18.29
2022-09-03T06:56:10.223Z,18.32
2022-09-03T06:58:38.875Z,18.37
2022-09-03T07:01:07.712Z,18.28
2022-09-03T07:03:38.263Z,18.17
2022-09-03T07:06:13.407Z,18.20
2022-09-03T07:08:40.521Z,18.17
2022-09-03T07:11:09.478Z,18.33
2022-09-03T07:13:41.850Z,18.54
2022-09-03T07:16:09.458Z,18.60
2022-09-03T07:18:37.014Z,18.74
2022-09-03T07:21:09.382Z,18.81
2022-09-03T07:23:37.306Z,19.10
2022-09-03T07:26:06.670Z,19.25
2022-09-03T07:28:36.094Z,19.36
2022-09-03T07:31:15.207Z,19.41
2022-09-03T07:33:43.229Z,19.62
2022-09-03T07:36:15.390Z,19.85
2022-09-03T07:38:44.920Z,20.02
2022-09-03T07:41:23.913Z,20.02
2022-09-03T07:43:57.362Z,20.33
2022-09-03T07:46:26.705Z,19.99
2022-09-03T07:48:55.235Z,20.20
2022-09-03T07:51:27.926Z,20.03
2022-09-03T07:53:59.884Z,20.08
2022-09-03T07:56:27.289Z,20.43
2022-09-03T07:58:56.910Z,20.51
2022-09-03T08:01:26.155Z,20.42
2022-09-03T08:03:53.697Z,20.54
2022-09-03T08:06:22.964Z,20.70
2022-09-03T08:08:49.872Z,21.02
2022-09-03T08:11:19.480Z,21.41
2022-09-03T08:13:54.955Z,21.85
2022-09-03T08:16:21.726Z,22.13
2022-09-03T08:18:51.218Z,22.04
2022-09-03T08:21:20.188Z,22.19
2022-09-03T08:23:48.690Z,21.84
2022-09-03T08:26:17.482Z,21.69
2022-09-03T08:28:44.990Z,21.50
2022-09-03T08:31:17.678Z,21.47
2022-09-03T08:33:46.435Z,21.88
2022-09-03T08:36:17.819Z,22.18
2022-09-03T08:38:46.512Z,22.08
2022-09-03T08:41:24.393Z,21.79
2022-09-03T08:44:07.219Z,21.85
2022-09-03T08:46:42.657Z,22.18
2022-09-03T08:49:11.946Z,22.82
2022-09-03T08:51:40.587Z,23.26
2022-09-03T08:54:09.649Z,23.76
2022-09-03T08:56:39.543Z,23.94
2022-09-03T08:59:06.669Z,24.04
2022-09-03T09:01:33.550Z,23.73
2022-09-03T09:04:22.626Z,23.48
2022-09-03T09:07:05.056Z,23.80
2022-09-03T09:09:38.129Z,23.94
2022-09-03T09:12:41.277Z,24.07
2022-09-03T09:15:34.900Z,23.36
2022-09-03T09:18:23.963Z,23.38
2022-09-03T09:21:08.213Z,22.37
2022-09-03T09:23:38.435Z,22.10
2022-09-03T09:26:09.244Z,22.29
2022-09-03T09:28:40.799Z,21.92
2022-09-03T09:31:12.594Z,21.93
2022-09-03T09:33:39.377Z,22.20
2022-09-03T09:36:08.860Z,22.54
2022-09-03T09:38:37.583Z,22.30
2022-09-03T09:41:19.482Z,21.54
2022-09-03T09:43:48.058Z,21.45
2022-09-03T09:46:22.866Z,21.23
2022-09-03T09:48:58.977Z,21.34
2022-09-03T09:51:31.215Z,21.75
2022-09-03T09:54:21.923Z,22.34
2022-09-03T09:56:59.713Z,22.43
2022-09-03T09:59:26.483Z,22.06
2022-09-03T10:02:24.107Z,22.40
2022-09-03T10:04:51.087Z,22.20
2022-09-03T10:07:28.139Z,22.29
2022-09-03T10:10:00.746Z,22.27
2022-09-03T10:12:35.900Z,22.00
2022-09-03T10:15:10.584Z,22.02
2022-09-03T10:17:40.285Z,22.12
2022-09-03T10:20:31.365Z,22.38
2022-09-03T10:23:19.269Z,22.01
2022-09-03T10:26:10.477Z,22.17
2022-09-03T10:28:42.723Z,22.23
2022-09-03T10:31:16.227Z,22.11
2022-09-03T10:33:59.186Z,22.09
2022-09-03T10:36:37.180Z,21.80
2022-09-03T10:39:25.352Z,22.09
2022-09-03T10:42:21.963Z,22.27
2022-09-03T10:45:20.029Z,22.81
2022-09-03T10:48:07.906Z,23.08
2022-09-03T10:50:53.591Z,23.20
2022-09-03T10:53:27.261Z,23.34
2022-09-03T10:56:02.123Z,23.25
2022-09-03T10:58:53.971Z,23.17
2022-09-03T11:01:39.847Z,23.35
2022-09-03T11:04:44.414Z,23.33
2022-09-03T11:07:15.417Z,23.27
2022-09-03T11:09:46.387Z,23.23
2022-09-03T11:12:23.252Z,23.56
2022-09-03T11:15:15.689Z,23.33
2022-09-03T11:17:47.848Z,23.51
2022-09-03T11:20:14.900Z,23.50
2022-09-03T11:22:43.304Z,23.65
2022-09-03T11:25:11.571Z,23.55
2022-09-03T11:27:41.336Z,23.75
2022-09-03T11:30:10.530Z,23.67
2022-09-03T11:32:40.871Z,23.54
2022-09-03T11:35:28.712Z,23.77
2022-09-03T11:38:06.681Z,23.89
2022-09-03T11:40:37.003Z,23.92
2022-09-03T11:43:24.591Z,23.98
2022-09-03T11:46:06.551Z,24.02
2022-09-03T11:48:44.045Z,24.06
2022-09-03T11:51:32.429Z,24.01
2022-09-03T11:54:14.252Z,23.83
2022-09-03T11:56:42.616Z,23.77
2022-09-03T11:59:12.573Z,23.87
2022-09-03T12:01:44.869Z,23.82
2022-09-03T12:04:15.318Z,23.61
2022-09-03T12:07:20.816Z,23.40
2022-09-03T12:09:51.685Z,22.98
2022-09-03T12:12:58.917Z,22.64
2022-09-03T12:15:31.547Z,22.32
2022-09-03T12:18:19.818Z,22.14
2022-09-03T12:20:47.979Z,21.87
2022-09-03T12:23:28.286Z,21.65
2022-09-03T12:25:55.751Z,21.51
2022-09-03T12:28:25.000Z,21.52
2022-09-03T12:30:53.937Z,21.36
2022-09-03T12:33:22.002Z,21.23
2022-09-03T12:35:59.865Z,21.19
2022-09-03T12:38:29.524Z,21.12
2022-09-03T12:43:51.806Z,21.10
2022-09-03T12:46:21.148Z,21.06
2022-09-03T12:51:50.070Z,20.80
2022-09-03T12:54:20.119Z,20.59
2022-09-03T12:56:56.796Z,20.35
2022-09-03T12:59:24.483Z,20.22
2022-09-03T13:01:54.545Z,19.89
2022-09-03T13:04:25.576Z,19.81
2022-09-03T13:07:07.442Z,19.68
2022-09-03T13:09:36.754Z,19.64
2022-09-03T13:12:07.584Z,19.57
2022-09-03T13:14:45.209Z,19.50
2022-09-03T13:17:16.588Z,19.30
2022-09-03T13:19:58.386Z,19.02
2022-09-03T13:22:54.603Z,18.72
2022-09-03T13:25:29.981Z,18.71
2022-09-03T13:28:22.622Z,18.64
2022-09-03T13:30:56.905Z,18.71
2022-09-03T13:33:33.590Z,18.73
2022-09-03T13:36:20.188Z,18.82
2022-09-03T13:38:54.966Z,18.98
2022-09-03T13:41:38.668Z,19.24
2022-09-03T13:44:19.028Z,19.58
2022-09-03T13:46:54.782Z,19.57
2022-09-03T13:49:40.408Z,19.54
2022-09-03T13:52:13.966Z,19.70
2022-09-03T13:54:49.979Z,19.99
2022-09-03T13:57:16.744Z,20.20
2022-09-03T13:59:53.036Z,20.36
2022-09-03T14:02:38.298Z,19.86
2022-09-03T14:05:28.045Z,19.53
2022-09-03T14:08:07.649Z,19.49
2022-09-03T14:11:03.620Z,19.50
2022-09-03T14:13:55.259Z,19.80
2022-09-03T14:16:38.083Z,20.11
2022-09-03T14:19:13.337Z,20.21
2022-09-03T14:21:52.835Z,20.23
2022-09-03T14:24:27.652Z,20.11
2022-09-03T14:26:59.435Z,20.10
2022-09-03T14:29:31.238Z,20.07
2022-09-03T14:32:23.697Z,20.15
2022-09-03T14:34:56.169Z,20.06
2022-09-03T14:37:54.580Z,20.13
2022-09-03T14:40:42.407Z,20.18
2022-09-03T14:43:37.164Z,20.21
2022-09-03T14:46:15.638Z,20.23
2022-09-03T14:49:06.717Z,20.10
2022-09-03T14:51:39.777Z,19.97
2022-09-03T14:54:18.709Z,19.84
2022-09-03T14:57:13.871Z,19.69
2022-09-03T15:00:20.011Z,19.66
2022-09-03T15:02:50.689Z,19.62
2022-09-03T15:05:50.022Z,19.52
2022-09-03T15:08:43.009Z,19.42
2022-09-03T15:11:27.395Z,19.22
2022-09-03T15:14:06.273Z,19.08
2022-09-03T15:16:51.668Z,19.05
2022-09-03T15:19:39.914Z,18.96
2022-09-03T15:22:16.983Z,18.96
2022-09-03T15:24:55.593Z,18.86
2022-09-03T15:27:50.149Z,19.07
2022-09-03T15:30:20.134Z,19.41
2022-09-03T15:32:55.745Z,19.73
2022-09-03T15:35:52.332Z,19.94
2022-09-03T15:38:52.820Z,20.06
2022-09-03T15:41:36.247Z,19.87
2022-09-03T15:44:19.422Z,19.62
2022-09-03T15:46:56.828Z,19.48
2022-09-03T15:49:26.907Z,19.29
2022-09-03T15:52:09.843Z,19.03
2022-09-03T15:54:43.522Z,18.96
2022-09-03T15:57:14.023Z,18.97
2022-09-03T15:59:49.755Z,19.05
2022-09-03T16:02:21.990Z,19.18
2022-09-03T16:05:16.429Z,19.40
2022-09-03T16:08:06.089Z,19.52
2022-09-03T16:11:06.888Z,19.51
2022-09-03T16:13:42.242Z,19.46
2022-09-03T16:16:11.902Z,19.45
2022-09-03T16:19:02.324Z,19.27
2022-09-03T16:21:55.287Z,19.16
2022-09-03T16:24:45.312Z,19.11
2022-09-03T16:27:28.327Z,19.02
2022-09-03T16:30:03.541Z,19.10
2022-09-03T16:32:48.259Z,19.13
2022-09-03T16:35:43.070Z,18.95
2022-09-03T16:38:31.905Z,18.82
2022-09-03T16:41:22.155Z,18.94
2022-09-03T16:44:04.232Z,19.18
2022-09-03T16:47:08.143Z,19.44
2022-09-03T16:49:50.104Z,19.61
2022-09-03T16:52:41.796Z,19.75
2022-09-03T16:55:44.208Z,19.94
2022-09-03T16:58:22.706Z,20.16
2022-09-03T17:01:07.051Z,20.82
2022-09-03T17:03:38.946Z,20.91
2022-09-03T17:06:30.850Z,20.41
2022-09-03T17:09:23.992Z,20.15
2022-09-03T17:12:26.277Z,19.90
2022-09-03T17:15:02.805Z,19.80
2022-09-03T17:17:41.720Z,19.60
2022-09-03T17:20:37.503Z,19.47
2022-09-03T17:23:06.816Z,19.40
2022-09-03T17:25:40.636Z,19.29
2022-09-03T17:28:39.445Z,19.10
2022-09-03T17:31:06.328Z,19.00
2022-09-03T17:33:32.956Z,18.82
2022-09-03T17:36:16.160Z,18.73
2022-09-03T17:39:19.253Z,18.69
2022-09-03T17:41:46.301Z,18.67
2022-09-03T17:44:24.038Z,18.56
2022-09-03T17:47:06.415Z,18.56
2022-09-03T17:49:42.902Z,18.50
2022-09-03T17:52:20.504Z,18.48
2022-09-03T17:54:54.694Z,18.52
2022-09-03T17:57:31.124Z,18.52
2022-09-03T18:00:08.495Z,18.49
2022-09-03T18:02:52.294Z,18.46
2022-09-03T18:05:26.751Z,18.43
2022-09-03T18:08:11.701Z,18.40
2022-09-03T18:10:50.074Z,18.37
2022-09-03T18:13:24.015Z,18.33
2022-09-03T18:16:05.680Z,18.29
2022-09-03T18:18:34.628Z,18.29
2022-09-03T18:21:26.408Z,18.25
2022-09-03T18:24:19.072Z,18.22
2022-09-03T18:27:20.228Z,18.23
2022-09-03T18:30:32.992Z,18.23
2022-09-03T18:33:18.544Z,18.17
2022-09-03T18:36:05.491Z,18.09
2022-09-03T18:38:53.676Z,18.06
2022-09-03T18:41:57.969Z,18.01
2022-09-03T18:44:57.751Z,18.01
2022-09-03T18:48:08.433Z,18.01
2022-09-03T18:51:05.555Z,17.98
2022-09-03T18:54:09.783Z,17.93
2022-09-03T18:57:07.427Z,17.92
2022-09-03T19:00:37.398Z,17.94
2022-09-03T19:03:48.207Z,17.92
2022-09-03T19:06:54.503Z,17.93
2022-09-03T19:10:06.099Z,17.91
2022-09-03T19:13:06.637Z,17.85
2022-09-03T19:16:01.125Z,17.81
2022-09-03T19:19:02.361Z,17.81
2022-09-03T19:21:59.979Z,17.84
2022-09-03T19:24:48.520Z,17.83
2022-09-03T19:28:00.262Z,17.87
2022-09-03T19:30:55.177Z,17.89
2022-09-03T19:33:52.277Z,17.95
2022-09-03T19:36:56.488Z,18.01
2022-09-03T19:40:07.413Z,17.95
2022-09-03T19:43:40.984Z,17.87
2022-09-03T19:46:54.041Z,17.88
2022-09-03T19:50:02.265Z,17.81
2022-09-03T19:52:53.840Z,17.76
2022-09-03T19:55:45.252Z,17.77
2022-09-03T19:58:43.253Z,17.76
2022-09-03T20:01:30.505Z,17.78
2022-09-03T20:04:18.692Z,17.74
2022-09-03T20:07:04.532Z,17.75
2022-09-03T20:09:54.746Z,17.67
2022-09-03T20:12:22.630Z,17.67
2022-09-03T20:14:49.362Z,17.64
2022-09-03T20:17:56.011Z,17.61
2022-09-03T20:20:55.138Z,17.51
2022-09-03T20:23:41.244Z,17.46
2022-09-03T20:26:49.609Z,17.44
2022-09-03T20:29:41.616Z,17.47
2022-09-03T20:32:12.266Z,17.50
2022-09-03T20:34:56.660Z,17.57
2022-09-03T20:37:42.279Z,17.58
2022-09-03T20:40:28.715Z,17.62
2022-09-03T20:43:06.254Z,17.63
2022-09-03T20:45:44.498Z,17.64
2022-09-03T20:48:22.057Z,17.63
2022-09-03T20:51:01.985Z,17.63
2022-09-03T20:53:43.999Z,17.63
2022-09-03T20:56:22.841Z,17.57
2022-09-03T20:59:11.013Z,17.54
2022-09-03T21:02:02.056Z,17.52
2022-09-03T21:05:00.084Z,17.50
2022-09-03T21:07:53.379Z,17.46
2022-09-03T21:10:34.953Z,17.38
2022-09-03T21:13:38.531Z,17.29
2022-09-03T21:16:30.549Z,17.25
2022-09-03T21:19:18.120Z,17.19
2022-09-03T21:21:48.056Z,17.13
2022-09-03T21:24:23.437Z,17.10
2022-09-03T21:27:03.719Z,17.09
2022-09-03T21:29:58.492Z,17.06
2022-09-03T21:32:30.781Z,17.02
2022-09-03T21:35:29.079Z,16.96
2022-09-03T21:37:59.912Z,16.90
2022-09-03T21:40:32.298Z,16.89
2022-09-03T21:43:34.835Z,16.80
2022-09-03T21:46:17.631Z,16.71
2022-09-03T21:48:59.722Z,16.68
2022-09-03T21:51:42.832Z,16.67
2022-09-03T21:54:18.416Z,16.73
2022-09-03T21:56:47.835Z,16.80
2022-09-03T21:59:17.219Z,16.91
2022-09-03T22:01:55.819Z,16.96
2022-09-03T22:04:22.835Z,17.03
2022-09-03T22:07:05.774Z,17.08
2022-09-03T22:09:42.127Z,17.10
2022-09-03T22:12:18.272Z,17.11
2022-09-03T22:14:51.381Z,17.11
2022-09-03T22:17:36.170Z,17.16
2022-09-03T22:20:20.566Z,17.15
2022-09-03T22:23:02.004Z,17.16
2022-09-03T22:26:03.882Z,17.14
2022-09-03T22:28:56.464Z,17.16
2022-09-03T22:32:06.151Z,17.18
2022-09-03T22:34:44.666Z,17.17
2022-09-03T22:37:47.925Z,17.25
2022-09-03T22:40:50.735Z,17.28
2022-09-03T22:43:46.892Z,17.27
2022-09-03T22:46:21.896Z,17.15
2022-09-03T22:49:28.177Z,17.13
2022-09-03T22:52:21.598Z,17.17
2022-09-03T22:55:20.535Z,17.14
2022-09-03T22:58:19.190Z,17.09
2022-09-03T23:01:24.120Z,17.06
2022-09-03T23:03:55.880Z,17.06
2022-09-03T23:06:32.950Z,17.04
2022-09-03T23:09:21.862Z,17.05
2022-09-03T23:12:46.562Z,17.04
2022-09-03T23:15:35.002Z,17.05
2022-09-03T23:18:26.958Z,17.03
2022-09-03T23:21:18.570Z,17.01
2022-09-03T23:24:04.887Z,16.97
2022-09-03T23:26:49.750Z,16.87
2022-09-03T23:29:38.649Z,16.90
2022-09-03T23:32:12.842Z,16.85
2022-09-03T23:34:59.932Z,16.78
2022-09-03T23:38:02.616Z,16.61
2022-09-03T23:40:42.683Z,16.50
2022-09-03T23:43:48.947Z,16.43
2022-09-03T23:46:54.089Z,16.38
2022-09-03T23:49:53.800Z,16.31
2022-09-03T23:52:58.284Z,16.12
2022-09-03T23:55:56.511Z,15.90
2022-09-03T23:59:08.405Z,16.01
